createdAt,value
2019-02-16T00:00:04.526Z,922.45
2019-02-16T00:00:17.508Z,922.5
2019-02-16T00:00:30.527Z,922.48
2019-02-16T00:00:43.521Z,922.5
2019-02-16T00:00:56.622Z,922.51
2019-02-16T00:01:09.156Z,922.5
2019-02-16T00:01:22.144Z,922.52
2019-02-16T00:01:35.122Z,922.54
2019-02-16T00:01:48.131Z,922.58
2019-02-16T00:02:01.192Z,922.56
2019-02-16T00:02:14.176Z,922.54
2019-02-16T00:02:27.190Z,922.58
2019-02-16T00:02:40.323Z,922.56
2019-02-16T00:02:53.376Z,922.54
2019-02-16T00:03:07.385Z,922.54
2019-02-16T00:03:20.322Z,922.55
2019-02-16T00:03:33.380Z,922.57
2019-02-16T00:03:46.402Z,922.56
2019-02-16T00:03:59.420Z,922.59
2019-02-16T00:04:12.449Z,922.56
2019-02-16T00:04:25.071Z,922.57
2019-02-16T00:04:38.087Z,922.58
2019-02-16T00:04:51.108Z,922.53
2019-02-16T00:05:04.306Z,922.49
2019-02-16T00:05:17.409Z,922.52
2019-02-16T00:05:30.392Z,922.57
2019-02-16T00:05:43.425Z,922.56
2019-02-16T00:05:56.437Z,922.58
2019-02-16T00:06:09.445Z,922.56
2019-02-16T00:06:22.443Z,922.59
2019-02-16T00:06:35.440Z,922.61
2019-02-16T00:06:48.448Z,922.58
2019-02-16T00:07:01.484Z,922.55
2019-02-16T00:07:14.565Z,922.6
2019-02-16T00:07:27.563Z,922.58
2019-02-16T00:07:40.626Z,922.6
2019-02-16T00:07:53.173Z,922.57
2019-02-16T00:08:06.173Z,922.58
2019-02-16T00:08:19.148Z,922.56
2019-02-16T00:08:32.186Z,922.58
2019-02-16T00:08:44.710Z,922.6
2019-02-16T00:08:57.665Z,922.62
2019-02-16T00:09:10.758Z,922.61
2019-02-16T00:09:23.377Z,922.59
2019-02-16T00:09:36.420Z,922.59
2019-02-16T00:09:49.449Z,922.58
2019-02-16T00:10:02.475Z,922.58
2019-02-16T00:10:15.498Z,922.61
2019-02-16T00:10:28.590Z,922.57
2019-02-16T00:10:41.565Z,922.57
2019-02-16T00:10:54.612Z,922.6
2019-02-16T00:11:07.681Z,922.59
2019-02-16T00:11:20.727Z,922.59
2019-02-16T00:11:33.714Z,922.6
2019-02-16T00:11:46.747Z,922.59
2019-02-16T00:11:59.814Z,922.58
2019-02-16T00:12:12.859Z,922.58
2019-02-16T00:12:25.868Z,922.6
2019-02-16T00:12:38.889Z,922.6
2019-02-16T00:12:52.066Z,922.56
2019-02-16T00:13:05.096Z,922.58
2019-02-16T00:13:18.128Z,922.59
2019-02-16T00:13:31.178Z,922.6
2019-02-16T00:13:44.261Z,922.56
2019-02-16T00:13:57.238Z,922.58
2019-02-16T00:14:10.264Z,922.54
2019-02-16T00:14:23.262Z,922.57
2019-02-16T00:14:36.331Z,922.54
2019-02-16T00:14:49.357Z,922.52
2019-02-16T00:15:02.387Z,922.52
2019-02-16T00:15:15.350Z,922.51
2019-02-16T00:15:28.318Z,922.52
2019-02-16T00:15:41.351Z,922.52
2019-02-16T00:15:54.366Z,922.51
2019-02-16T00:16:07.320Z,922.5
2019-02-16T00:16:20.423Z,922.48
2019-02-16T00:16:33.517Z,922.48
2019-02-16T00:16:46.598Z,922.5
2019-02-16T00:16:59.190Z,922.5
2019-02-16T00:17:12.285Z,922.5
2019-02-16T00:17:25.331Z,922.51
2019-02-16T00:17:38.338Z,922.46
2019-02-16T00:17:51.312Z,922.51
2019-02-16T00:18:04.316Z,922.48
2019-02-16T00:18:17.527Z,922.5
2019-02-16T00:18:30.575Z,922.49
2019-02-16T00:18:43.621Z,922.51
2019-02-16T00:18:56.571Z,922.49
2019-02-16T00:19:09.649Z,922.53
2019-02-16T00:19:22.655Z,922.53
2019-02-16T00:19:35.749Z,922.56
2019-02-16T00:19:48.945Z,922.6
2019-02-16T00:20:02.034Z,922.57
2019-02-16T00:20:15.108Z,922.58
2019-02-16T00:20:28.130Z,922.6
2019-02-16T00:20:41.142Z,922.57
2019-02-16T00:21:03.309Z,922.63
2019-02-16T00:21:16.564Z,922.58
2019-02-16T00:21:29.584Z,922.63
2019-02-16T00:21:42.612Z,922.63
2019-02-16T00:21:55.612Z,922.61
2019-02-16T00:22:08.659Z,922.62
2019-02-16T00:22:21.627Z,922.61
2019-02-16T00:22:34.664Z,922.61
2019-02-16T00:22:47.621Z,922.62
2019-02-16T00:23:00.687Z,922.61
2019-02-16T00:23:13.720Z,922.61
2019-02-16T00:23:26.753Z,922.63
2019-02-16T00:23:39.854Z,922.6
2019-02-16T00:23:53.117Z,922.62
2019-02-16T00:24:06.106Z,922.6
2019-02-16T00:24:19.127Z,922.59
2019-02-16T00:24:32.234Z,922.65
2019-02-16T00:24:45.224Z,922.62
2019-02-16T00:24:58.204Z,922.63
2019-02-16T00:25:11.245Z,922.61
2019-02-16T00:25:24.187Z,922.63
2019-02-16T00:25:37.190Z,922.63
2019-02-16T00:25:50.290Z,922.6
2019-02-16T00:26:03.283Z,922.62
2019-02-16T00:26:16.379Z,922.63
2019-02-16T00:26:29.378Z,922.6
2019-02-16T00:26:42.438Z,922.62
2019-02-16T00:26:55.452Z,922.61
2019-02-16T00:27:08.464Z,922.6
2019-02-16T00:27:20.989Z,922.62
2019-02-16T00:27:33.989Z,922.61
2019-02-16T00:27:46.993Z,922.64
2019-02-16T00:27:59.958Z,922.63
2019-02-16T00:28:12.986Z,922.65
2019-02-16T00:28:26.172Z,922.6
2019-02-16T00:28:39.193Z,922.62
2019-02-16T00:28:52.226Z,922.64
2019-02-16T00:29:05.249Z,922.62
2019-02-16T00:29:18.190Z,922.66
2019-02-16T00:29:31.171Z,922.66
2019-02-16T00:29:44.168Z,922.68
2019-02-16T00:29:57.128Z,922.72
2019-02-16T00:30:10.396Z,922.71
2019-02-16T00:30:23.352Z,922.71
2019-02-16T00:30:36.395Z,922.71
2019-02-16T00:30:49.373Z,922.72
2019-02-16T00:31:02.347Z,922.7
2019-02-16T00:31:15.369Z,922.74
2019-02-16T00:31:28.376Z,922.77
2019-02-16T00:31:41.477Z,922.74
2019-02-16T00:31:54.559Z,922.74
2019-02-16T00:32:07.487Z,922.77
2019-02-16T00:32:20.546Z,922.77
2019-02-16T00:32:33.564Z,922.75
2019-02-16T00:32:46.541Z,922.74
2019-02-16T00:32:59.968Z,922.75
2019-02-16T00:33:13.043Z,922.75
2019-02-16T00:33:26.910Z,922.78
2019-02-16T00:33:39.977Z,922.78
2019-02-16T00:33:52.996Z,922.77
2019-02-16T00:34:05.990Z,922.76
2019-02-16T00:34:19.007Z,922.8
2019-02-16T00:34:32.008Z,922.74
2019-02-16T00:34:45.035Z,922.75
2019-02-16T00:34:58.060Z,922.77
2019-02-16T00:35:11.074Z,922.76
2019-02-16T00:35:24.069Z,922.76
2019-02-16T00:35:37.085Z,922.75
2019-02-16T00:35:50.064Z,922.76
2019-02-16T00:36:03.145Z,922.77
2019-02-16T00:36:16.193Z,922.76
2019-02-16T00:36:29.196Z,922.7
2019-02-16T00:36:42.250Z,922.74
2019-02-16T00:36:55.288Z,922.77
2019-02-16T00:37:08.378Z,922.76
2019-02-16T00:37:21.405Z,922.74
2019-02-16T00:37:34.344Z,922.76
2019-02-16T00:37:47.370Z,922.76
2019-02-16T00:37:59.897Z,922.72
2019-02-16T00:38:13.017Z,922.75
2019-02-16T00:38:26.047Z,922.75
2019-02-16T00:38:39.066Z,922.75
2019-02-16T00:38:54.130Z,922.75
2019-02-16T00:39:07.326Z,922.72
2019-02-16T00:39:20.379Z,922.77
2019-02-16T00:39:33.378Z,922.76
2019-02-16T00:39:46.357Z,922.74
2019-02-16T00:39:59.305Z,922.77
2019-02-16T00:40:12.352Z,922.77
2019-02-16T00:40:25.417Z,922.74
2019-02-16T00:40:37.970Z,922.79
2019-02-16T00:40:51.029Z,922.79
2019-02-16T00:41:04.059Z,922.79
2019-02-16T00:41:17.072Z,922.8
2019-02-16T00:41:30.129Z,922.82
2019-02-16T00:41:43.137Z,922.82
2019-02-16T00:41:56.061Z,922.83
2019-02-16T00:42:09.166Z,922.82
2019-02-16T00:42:22.194Z,922.84
2019-02-16T00:42:35.211Z,922.83
2019-02-16T00:42:48.282Z,922.83
2019-02-16T00:43:01.370Z,922.81
2019-02-16T00:43:14.376Z,922.79
2019-02-16T00:43:27.431Z,922.83
2019-02-16T00:43:40.342Z,922.84
2019-02-16T00:43:53.333Z,922.81
2019-02-16T00:44:06.282Z,922.78
2019-02-16T00:44:19.334Z,922.79
2019-02-16T00:44:34.369Z,922.73
2019-02-16T00:44:47.444Z,922.74
2019-02-16T00:45:00.503Z,922.7
2019-02-16T00:45:13.521Z,922.72
2019-02-16T00:45:26.560Z,922.69
2019-02-16T00:45:39.611Z,922.66
2019-02-16T00:45:52.631Z,922.64
2019-02-16T00:46:05.690Z,922.64
2019-02-16T00:46:18.787Z,922.61
2019-02-16T00:46:31.777Z,922.64
2019-02-16T00:46:44.803Z,922.63
2019-02-16T00:46:57.796Z,922.59
2019-02-16T00:47:10.743Z,922.62
2019-02-16T00:47:23.717Z,922.62
2019-02-16T00:47:36.765Z,922.58
2019-02-16T00:47:49.753Z,922.62
2019-02-16T00:48:02.828Z,922.59
2019-02-16T00:48:15.908Z,922.61
2019-02-16T00:48:29.129Z,922.6
2019-02-16T00:48:42.197Z,922.6
2019-02-16T00:48:55.162Z,922.62
2019-02-16T00:49:07.771Z,922.6
2019-02-16T00:49:20.714Z,922.62
2019-02-16T00:49:33.738Z,922.63
2019-02-16T00:49:46.767Z,922.6
2019-02-16T00:49:59.839Z,922.6
2019-02-16T00:50:12.872Z,922.61
2019-02-16T00:50:25.868Z,922.6
2019-02-16T00:50:38.870Z,922.62
2019-02-16T00:50:51.871Z,922.59
2019-02-16T00:51:14.332Z,922.59
2019-02-16T00:51:26.888Z,922.62
2019-02-16T00:51:39.892Z,922.59
2019-02-16T00:51:52.921Z,922.6
2019-02-16T00:52:05.950Z,922.6
2019-02-16T00:52:18.905Z,922.61
2019-02-16T00:52:31.905Z,922.64
2019-02-16T00:52:44.808Z,922.62
2019-02-16T00:52:57.819Z,922.65
2019-02-16T00:53:10.885Z,922.61
2019-02-16T00:53:23.963Z,922.64
2019-02-16T00:53:37.033Z,922.62
2019-02-16T00:53:50.074Z,922.65
2019-02-16T00:54:03.156Z,922.65
2019-02-16T00:54:16.178Z,922.65
2019-02-16T00:54:29.237Z,922.68
2019-02-16T00:54:42.250Z,922.64
2019-02-16T00:54:55.321Z,922.65
2019-02-16T00:55:07.861Z,922.63
2019-02-16T00:55:20.881Z,922.61
2019-02-16T00:55:33.857Z,922.6
2019-02-16T00:55:47.066Z,922.59
2019-02-16T00:56:00.099Z,922.58
2019-02-16T00:56:13.090Z,922.57
2019-02-16T00:56:26.063Z,922.55
2019-02-16T00:56:39.090Z,922.58
2019-02-16T00:56:52.098Z,922.58
2019-02-16T00:57:04.679Z,922.57
2019-02-16T00:57:17.685Z,922.63
2019-02-16T00:57:30.700Z,922.6
2019-02-16T00:57:43.733Z,922.6
2019-02-16T00:57:56.675Z,922.61
2019-02-16T00:58:09.777Z,922.66
2019-02-16T00:58:22.798Z,922.64
2019-02-16T00:58:36.023Z,922.67
2019-02-16T00:58:49.135Z,922.65
2019-02-16T00:59:02.184Z,922.7
2019-02-16T00:59:15.229Z,922.67
2019-02-16T00:59:29.181Z,922.65
2019-02-16T00:59:42.227Z,922.66
2019-02-16T00:59:55.308Z,922.67
2019-02-16T01:00:08.373Z,922.66
2019-02-16T01:00:21.381Z,922.62
2019-02-16T01:00:34.414Z,922.63
2019-02-16T01:00:47.443Z,922.63
2019-02-16T01:01:00.407Z,922.6
2019-02-16T01:01:13.491Z,922.63
2019-02-16T01:01:26.559Z,922.64
2019-02-16T01:01:39.547Z,922.64
2019-02-16T01:01:52.550Z,922.64
2019-02-16T01:02:05.668Z,922.64
2019-02-16T01:02:18.666Z,922.66
2019-02-16T01:02:31.721Z,922.64
2019-02-16T01:02:44.789Z,922.61
2019-02-16T01:02:57.843Z,922.64
2019-02-16T01:03:10.937Z,922.65
2019-02-16T01:03:23.951Z,922.68
2019-02-16T01:03:37.657Z,922.68
2019-02-16T01:03:50.710Z,922.68
2019-02-16T01:04:03.750Z,922.71
2019-02-16T01:04:16.739Z,922.67
2019-02-16T01:04:29.673Z,922.66
2019-02-16T01:04:43.361Z,922.67
2019-02-16T01:04:56.292Z,922.68
2019-02-16T01:05:09.321Z,922.71
2019-02-16T01:05:22.418Z,922.71
2019-02-16T01:05:35.408Z,922.71
2019-02-16T01:05:48.435Z,922.72
2019-02-16T01:06:01.472Z,922.73
2019-02-16T01:06:14.504Z,922.7
2019-02-16T01:06:27.476Z,922.75
2019-02-16T01:06:40.483Z,922.78
2019-02-16T01:06:53.477Z,922.77
2019-02-16T01:07:06.520Z,922.76
2019-02-16T01:07:19.517Z,922.8
2019-02-16T01:07:32.538Z,922.81
2019-02-16T01:07:45.519Z,922.8
2019-02-16T01:07:58.552Z,922.83
2019-02-16T01:08:11.485Z,922.82
2019-02-16T01:08:24.524Z,922.83
2019-02-16T01:08:37.533Z,922.82
2019-02-16T01:08:50.503Z,922.81
2019-02-16T01:09:03.498Z,922.84
2019-02-16T01:09:16.510Z,922.85
2019-02-16T01:09:29.592Z,922.87
2019-02-16T01:09:42.716Z,922.85
2019-02-16T01:09:55.728Z,922.85
2019-02-16T01:10:08.752Z,922.89
2019-02-16T01:10:21.344Z,922.88
2019-02-16T01:10:34.376Z,922.86
2019-02-16T01:10:47.469Z,922.89
2019-02-16T01:11:00.510Z,922.89
2019-02-16T01:11:13.543Z,922.86
2019-02-16T01:11:26.613Z,922.9
2019-02-16T01:11:39.610Z,922.87
2019-02-16T01:11:52.688Z,922.9
2019-02-16T01:12:05.738Z,922.89
2019-02-16T01:12:18.743Z,922.91
2019-02-16T01:12:31.740Z,922.89
2019-02-16T01:12:44.738Z,922.92
2019-02-16T01:12:57.725Z,922.9
2019-02-16T01:13:10.706Z,922.92
2019-02-16T01:13:23.650Z,922.92
2019-02-16T01:13:36.712Z,922.91
2019-02-16T01:13:49.783Z,922.93
2019-02-16T01:14:02.373Z,922.92
2019-02-16T01:14:15.394Z,922.97
2019-02-16T01:14:28.410Z,922.93
2019-02-16T01:14:41.459Z,922.93
2019-02-16T01:14:54.614Z,922.95
2019-02-16T01:15:07.238Z,922.94
2019-02-16T01:15:20.219Z,922.92
2019-02-16T01:15:33.165Z,922.92
2019-02-16T01:15:46.120Z,922.93
2019-02-16T01:15:59.172Z,922.96
2019-02-16T01:16:11.683Z,922.95
2019-02-16T01:16:24.733Z,922.96
2019-02-16T01:16:37.776Z,922.93
2019-02-16T01:16:50.778Z,922.92
2019-02-16T01:17:03.833Z,922.87
2019-02-16T01:17:16.852Z,922.88
2019-02-16T01:17:29.840Z,922.91
2019-02-16T01:17:42.892Z,922.89
2019-02-16T01:17:55.890Z,922.88
2019-02-16T01:18:10.326Z,922.85
2019-02-16T01:18:23.313Z,922.86
2019-02-16T01:18:36.370Z,922.85
2019-02-16T01:18:49.697Z,922.86
2019-02-16T01:19:02.689Z,922.85
2019-02-16T01:19:15.282Z,922.84
2019-02-16T01:19:28.298Z,922.85
2019-02-16T01:19:41.289Z,922.86
2019-02-16T01:19:54.341Z,922.86
2019-02-16T01:20:07.321Z,922.8
2019-02-16T01:20:20.295Z,922.82
2019-02-16T01:20:33.298Z,922.82
2019-02-16T01:20:46.296Z,922.8
2019-02-16T01:20:59.313Z,922.82
2019-02-16T01:21:12.255Z,922.79
2019-02-16T01:21:32.923Z,922.78
2019-02-16T01:21:45.498Z,922.8
2019-02-16T01:21:58.534Z,922.79
2019-02-16T01:22:11.564Z,922.79
2019-02-16T01:22:24.583Z,922.79
2019-02-16T01:22:37.584Z,922.81
2019-02-16T01:22:50.656Z,922.8
2019-02-16T01:23:03.653Z,922.85
2019-02-16T01:23:16.184Z,922.81
2019-02-16T01:23:29.222Z,922.83
2019-02-16T01:23:42.267Z,922.83
2019-02-16T01:23:55.267Z,922.84
2019-02-16T01:24:08.339Z,922.84
2019-02-16T01:24:21.433Z,922.85
2019-02-16T01:24:34.433Z,922.83
2019-02-16T01:24:47.503Z,922.86
2019-02-16T01:25:00.467Z,922.9
2019-02-16T01:25:13.071Z,922.87
2019-02-16T01:25:26.127Z,922.87
2019-02-16T01:25:39.169Z,922.86
2019-02-16T01:25:52.154Z,922.87
2019-02-16T01:26:05.236Z,922.87
2019-02-16T01:26:18.248Z,922.86
2019-02-16T01:26:31.284Z,922.85
2019-02-16T01:26:44.328Z,922.9
2019-02-16T01:26:57.360Z,922.88
2019-02-16T01:27:10.361Z,922.9
2019-02-16T01:27:23.351Z,922.9
2019-02-16T01:27:36.338Z,922.91
2019-02-16T01:27:49.374Z,922.87
2019-02-16T01:28:02.382Z,922.89
2019-02-16T01:28:15.410Z,922.91
2019-02-16T01:28:28.352Z,922.91
2019-02-16T01:28:40.930Z,922.9
2019-02-16T01:28:54.190Z,922.93
2019-02-16T01:29:07.217Z,922.9
2019-02-16T01:29:20.185Z,922.95
2019-02-16T01:29:33.275Z,922.94
2019-02-16T01:29:46.278Z,922.93
2019-02-16T01:29:59.216Z,922.95
2019-02-16T01:30:12.203Z,922.92
2019-02-16T01:30:25.220Z,922.94
2019-02-16T01:30:38.180Z,922.95
2019-02-16T01:30:51.185Z,922.96
2019-02-16T01:31:04.201Z,922.95
2019-02-16T01:31:17.207Z,922.96
2019-02-16T01:31:30.212Z,922.96
2019-02-16T01:31:43.209Z,922.95
2019-02-16T01:31:56.131Z,922.92
2019-02-16T01:32:09.183Z,922.92
2019-02-16T01:32:22.186Z,922.92
2019-02-16T01:32:34.774Z,922.92
2019-02-16T01:32:48.077Z,922.93
2019-02-16T01:33:01.104Z,922.94
2019-02-16T01:33:14.148Z,922.95
2019-02-16T01:33:26.666Z,922.91
2019-02-16T01:33:39.660Z,922.92
2019-02-16T01:33:53.409Z,922.92
2019-02-16T01:34:06.381Z,922.91
2019-02-16T01:34:19.367Z,922.92
2019-02-16T01:34:32.381Z,922.93
2019-02-16T01:34:45.447Z,922.93
2019-02-16T01:34:58.413Z,922.9
2019-02-16T01:35:11.397Z,922.9
2019-02-16T01:35:24.503Z,922.91
2019-02-16T01:35:37.503Z,922.91
2019-02-16T01:35:50.560Z,922.88
2019-02-16T01:36:03.620Z,922.88
2019-02-16T01:36:16.646Z,922.87
2019-02-16T01:36:29.684Z,922.88
2019-02-16T01:36:42.753Z,922.85
2019-02-16T01:36:55.817Z,922.89
2019-02-16T01:37:08.803Z,922.86
2019-02-16T01:37:21.818Z,922.84
2019-02-16T01:37:34.925Z,922.85
2019-02-16T01:37:48.081Z,922.83
2019-02-16T01:38:01.134Z,922.86
2019-02-16T01:38:14.165Z,922.84
2019-02-16T01:38:27.190Z,922.85
2019-02-16T01:38:40.217Z,922.84
2019-02-16T01:38:53.287Z,922.85
2019-02-16T01:39:06.280Z,922.8
2019-02-16T01:39:19.255Z,922.79
2019-02-16T01:39:32.287Z,922.78
2019-02-16T01:39:45.321Z,922.8
2019-02-16T01:39:58.344Z,922.79
2019-02-16T01:40:11.355Z,922.76
2019-02-16T01:40:24.336Z,922.78
2019-02-16T01:40:37.319Z,922.77
2019-02-16T01:40:50.390Z,922.73
2019-02-16T01:41:03.441Z,922.74
2019-02-16T01:41:16.445Z,922.78
2019-02-16T01:41:29.454Z,922.74
2019-02-16T01:41:42.488Z,922.7
2019-02-16T01:41:57.624Z,922.72
2019-02-16T01:42:10.641Z,922.69
2019-02-16T01:42:23.624Z,922.71
2019-02-16T01:42:36.609Z,922.68
2019-02-16T01:42:49.675Z,922.67
2019-02-16T01:43:02.746Z,922.68
2019-02-16T01:43:15.781Z,922.7
2019-02-16T01:43:28.769Z,922.67
2019-02-16T01:43:41.800Z,922.71
2019-02-16T01:43:54.769Z,922.69
2019-02-16T01:44:07.757Z,922.66
2019-02-16T01:44:20.701Z,922.68
2019-02-16T01:44:33.721Z,922.7
2019-02-16T01:44:46.786Z,922.68
2019-02-16T01:44:59.761Z,922.67
2019-02-16T01:45:12.725Z,922.65
2019-02-16T01:45:25.760Z,922.66
2019-02-16T01:45:38.812Z,922.65
2019-02-16T01:45:52.129Z,922.64
2019-02-16T01:46:05.195Z,922.65
2019-02-16T01:46:18.152Z,922.65
2019-02-16T01:46:31.202Z,922.65
2019-02-16T01:46:44.250Z,922.66
2019-02-16T01:46:57.229Z,922.65
2019-02-16T01:47:10.271Z,922.62
2019-02-16T01:47:23.271Z,922.64
2019-02-16T01:47:36.304Z,922.68
2019-02-16T01:47:49.234Z,922.61
2019-02-16T01:48:02.230Z,922.65
2019-02-16T01:48:15.136Z,922.63
2019-02-16T01:48:28.161Z,922.65
2019-02-16T01:48:41.191Z,922.64
2019-02-16T01:48:54.787Z,922.65
2019-02-16T01:49:07.857Z,922.63
2019-02-16T01:49:20.919Z,922.65
2019-02-16T01:49:33.928Z,922.64
2019-02-16T01:49:46.922Z,922.6
2019-02-16T01:50:00.010Z,922.63
2019-02-16T01:50:13.092Z,922.61
2019-02-16T01:50:26.084Z,922.6
2019-02-16T01:50:39.125Z,922.65
2019-02-16T01:50:52.186Z,922.65
2019-02-16T01:51:05.197Z,922.63
2019-02-16T01:51:18.240Z,922.64
2019-02-16T01:51:38.551Z,922.61
2019-02-16T01:51:51.576Z,922.62
2019-02-16T01:52:04.643Z,922.66
2019-02-16T01:52:17.669Z,922.65
2019-02-16T01:52:30.703Z,922.64
2019-02-16T01:52:43.685Z,922.62
2019-02-16T01:52:56.252Z,922.62
2019-02-16T01:53:09.289Z,922.62
2019-02-16T01:53:22.275Z,922.61
2019-02-16T01:53:35.364Z,922.61
2019-02-16T01:53:48.385Z,922.62
2019-02-16T01:54:01.447Z,922.6
2019-02-16T01:54:14.525Z,922.59
2019-02-16T01:54:27.521Z,922.6
2019-02-16T01:54:40.682Z,922.59
2019-02-16T01:54:53.232Z,922.6
2019-02-16T01:55:06.250Z,922.58
2019-02-16T01:55:19.358Z,922.57
2019-02-16T01:55:31.925Z,922.58
2019-02-16T01:55:44.921Z,922.59
2019-02-16T01:55:58.203Z,922.55
2019-02-16T01:56:11.195Z,922.57
2019-02-16T01:56:24.212Z,922.56
2019-02-16T01:56:37.261Z,922.58
2019-02-16T01:56:50.227Z,922.56
2019-02-16T01:57:03.213Z,922.55
2019-02-16T01:57:16.236Z,922.58
2019-02-16T01:57:29.243Z,922.56
2019-02-16T01:57:42.308Z,922.56
2019-02-16T01:57:55.344Z,922.5
2019-02-16T01:58:07.904Z,922.54
2019-02-16T01:58:20.908Z,922.5
2019-02-16T01:58:33.951Z,922.52
2019-02-16T01:58:47.065Z,922.55
2019-02-16T01:59:00.112Z,922.55
2019-02-16T01:59:13.094Z,922.52
2019-02-16T01:59:26.121Z,922.52
2019-02-16T01:59:39.170Z,922.54
2019-02-16T01:59:52.192Z,922.49
2019-02-16T02:00:05.304Z,922.46
2019-02-16T02:00:18.257Z,922.48
2019-02-16T02:00:31.277Z,922.46
2019-02-16T02:00:44.343Z,922.47
2019-02-16T02:00:57.331Z,922.42
2019-02-16T02:01:10.327Z,922.48
2019-02-16T02:01:23.317Z,922.43
2019-02-16T02:01:36.337Z,922.43
2019-02-16T02:01:48.922Z,922.41
2019-02-16T02:02:01.950Z,922.42
2019-02-16T02:02:14.970Z,922.38
2019-02-16T02:02:28.047Z,922.4
2019-02-16T02:02:40.973Z,922.39
2019-02-16T02:02:54.143Z,922.38
2019-02-16T02:03:07.190Z,922.44
2019-02-16T02:03:20.241Z,922.37
2019-02-16T02:03:33.228Z,922.39
2019-02-16T02:03:46.265Z,922.4
2019-02-16T02:04:00.152Z,922.41
2019-02-16T02:04:13.161Z,922.36
2019-02-16T02:04:26.183Z,922.42
2019-02-16T02:04:39.249Z,922.41
2019-02-16T02:04:52.278Z,922.39
2019-02-16T02:05:05.385Z,922.4
2019-02-16T02:05:18.411Z,922.43
2019-02-16T02:05:31.422Z,922.41
2019-02-16T02:05:44.474Z,922.41
2019-02-16T02:05:57.450Z,922.42
2019-02-16T02:06:10.444Z,922.44
2019-02-16T02:06:23.416Z,922.45
2019-02-16T02:06:36.442Z,922.44
2019-02-16T02:06:49.469Z,922.45
2019-02-16T02:07:02.507Z,922.44
2019-02-16T02:07:15.545Z,922.44
2019-02-16T02:07:28.586Z,922.44
2019-02-16T02:07:41.622Z,922.46
2019-02-16T02:07:54.576Z,922.44
2019-02-16T02:08:07.573Z,922.44
2019-02-16T02:08:20.537Z,922.44
2019-02-16T02:08:33.499Z,922.45
2019-02-16T02:08:46.444Z,922.42
2019-02-16T02:08:59.427Z,922.43
2019-02-16T02:09:12.968Z,922.46
2019-02-16T02:09:25.856Z,922.44
2019-02-16T02:09:38.850Z,922.46
2019-02-16T02:09:51.919Z,922.46
2019-02-16T02:10:04.987Z,922.44
2019-02-16T02:10:17.977Z,922.48
2019-02-16T02:10:30.991Z,922.49
2019-02-16T02:10:43.963Z,922.5
2019-02-16T02:10:56.982Z,922.48
2019-02-16T02:11:10.055Z,922.48
2019-02-16T02:11:23.088Z,922.43
2019-02-16T02:11:36.051Z,922.52
2019-02-16T02:11:48.643Z,922.49
2019-02-16T02:12:01.751Z,922.52
2019-02-16T02:12:14.706Z,922.49
2019-02-16T02:12:27.264Z,922.53
2019-02-16T02:12:40.250Z,922.5
2019-02-16T02:12:53.286Z,922.49
2019-02-16T02:13:06.347Z,922.48
2019-02-16T02:13:18.888Z,922.48
2019-02-16T02:13:31.854Z,922.46
2019-02-16T02:13:44.435Z,922.48
2019-02-16T02:13:57.399Z,922.5
2019-02-16T02:14:10.396Z,922.5
2019-02-16T02:14:23.369Z,922.49
2019-02-16T02:14:36.369Z,922.49
2019-02-16T02:14:49.409Z,922.47
2019-02-16T02:15:02.450Z,922.47
2019-02-16T02:15:15.530Z,922.48
2019-02-16T02:15:28.610Z,922.51
2019-02-16T02:15:41.608Z,922.49
2019-02-16T02:15:54.239Z,922.5
2019-02-16T02:16:07.319Z,922.51
2019-02-16T02:16:20.346Z,922.51
2019-02-16T02:16:33.375Z,922.55
2019-02-16T02:16:46.323Z,922.52
2019-02-16T02:16:59.411Z,922.53
2019-02-16T02:17:12.481Z,922.54
2019-02-16T02:17:25.493Z,922.51
2019-02-16T02:17:38.470Z,922.55
2019-02-16T02:17:51.478Z,922.53
2019-02-16T02:18:04.511Z,922.54
2019-02-16T02:18:17.544Z,922.53
2019-02-16T02:18:30.664Z,922.57
2019-02-16T02:18:43.689Z,922.56
2019-02-16T02:18:56.786Z,922.58
2019-02-16T02:19:10.753Z,922.6
2019-02-16T02:19:23.824Z,922.61
2019-02-16T02:19:36.811Z,922.58
2019-02-16T02:19:49.790Z,922.6
2019-02-16T02:20:02.793Z,922.58
2019-02-16T02:20:15.868Z,922.58
2019-02-16T02:20:28.920Z,922.59
2019-02-16T02:20:41.925Z,922.57
2019-02-16T02:20:54.603Z,922.58
2019-02-16T02:21:07.642Z,922.57
2019-02-16T02:21:20.632Z,922.55
2019-02-16T02:21:42.261Z,922.61
2019-02-16T02:21:55.296Z,922.57
2019-02-16T02:22:08.283Z,922.54
2019-02-16T02:22:21.281Z,922.57
2019-02-16T02:22:34.306Z,922.56
2019-02-16T02:22:47.414Z,922.55
2019-02-16T02:23:00.503Z,922.53
2019-02-16T02:23:13.519Z,922.53
2019-02-16T02:23:26.486Z,922.53
2019-02-16T02:23:39.473Z,922.53
2019-02-16T02:23:52.407Z,922.5
2019-02-16T02:24:05.394Z,922.51
2019-02-16T02:24:18.414Z,922.51
2019-02-16T02:24:31.368Z,922.53
2019-02-16T02:24:44.292Z,922.49
2019-02-16T02:24:57.348Z,922.51
2019-02-16T02:25:10.391Z,922.46
2019-02-16T02:25:23.459Z,922.44
2019-02-16T02:25:36.411Z,922.47
2019-02-16T02:25:49.431Z,922.47
2019-02-16T02:26:02.419Z,922.43
2019-02-16T02:26:15.489Z,922.44
2019-02-16T02:26:28.532Z,922.46
2019-02-16T02:26:41.556Z,922.45
2019-02-16T02:26:54.599Z,922.41
2019-02-16T02:27:07.623Z,922.41
2019-02-16T02:27:20.616Z,922.45
2019-02-16T02:27:33.710Z,922.42
2019-02-16T02:27:46.770Z,922.42
2019-02-16T02:27:59.711Z,922.39
2019-02-16T02:28:12.752Z,922.39
2019-02-16T02:28:25.724Z,922.36
2019-02-16T02:28:38.710Z,922.36
2019-02-16T02:28:51.748Z,922.36
2019-02-16T02:29:04.728Z,922.33
2019-02-16T02:29:17.691Z,922.35
2019-02-16T02:29:30.717Z,922.31
2019-02-16T02:29:43.741Z,922.33
2019-02-16T02:29:56.719Z,922.29
2019-02-16T02:30:09.749Z,922.32
2019-02-16T02:30:22.822Z,922.29
2019-02-16T02:30:35.821Z,922.26
2019-02-16T02:30:48.883Z,922.27
2019-02-16T02:31:01.947Z,922.23
2019-02-16T02:31:14.483Z,922.27
2019-02-16T02:31:27.528Z,922.23
2019-02-16T02:31:41.695Z,922.2
2019-02-16T02:31:54.722Z,922.22
2019-02-16T02:32:07.795Z,922.23
2019-02-16T02:32:20.840Z,922.22
2019-02-16T02:32:33.934Z,922.22
2019-02-16T02:32:47.094Z,922.21
2019-02-16T02:33:00.180Z,922.23
2019-02-16T02:33:13.240Z,922.2
2019-02-16T02:33:26.342Z,922.21
2019-02-16T02:33:39.359Z,922.18
2019-02-16T02:33:52.388Z,922.23
2019-02-16T02:34:06.270Z,922.21
2019-02-16T02:34:18.795Z,922.23
2019-02-16T02:34:31.798Z,922.22
2019-02-16T02:34:44.759Z,922.21
2019-02-16T02:34:57.756Z,922.19
2019-02-16T02:35:10.792Z,922.2
2019-02-16T02:35:23.848Z,922.21
2019-02-16T02:35:36.930Z,922.23
2019-02-16T02:35:49.896Z,922.21
2019-02-16T02:36:02.947Z,922.23
2019-02-16T02:36:16.006Z,922.24
2019-02-16T02:36:29.134Z,922.24
2019-02-16T02:36:42.136Z,922.24
2019-02-16T02:36:55.303Z,922.27
2019-02-16T02:37:08.289Z,922.24
2019-02-16T02:37:21.341Z,922.25
2019-02-16T02:37:34.404Z,922.25
2019-02-16T02:37:47.403Z,922.26
2019-02-16T02:37:59.881Z,922.24
2019-02-16T02:38:12.911Z,922.25
2019-02-16T02:38:25.990Z,922.23
2019-02-16T02:38:38.984Z,922.26
2019-02-16T02:38:52.078Z,922.24
2019-02-16T02:39:05.121Z,922.22
2019-02-16T02:39:18.133Z,922.24
2019-02-16T02:39:31.236Z,922.21
2019-02-16T02:39:44.276Z,922.26
2019-02-16T02:39:57.233Z,922.25
2019-02-16T02:40:10.450Z,922.22
2019-02-16T02:40:23.498Z,922.23
2019-02-16T02:40:36.546Z,922.27
2019-02-16T02:40:49.624Z,922.24
2019-02-16T02:41:02.723Z,922.27
2019-02-16T02:41:15.817Z,922.23
2019-02-16T02:41:28.828Z,922.22
2019-02-16T02:41:41.850Z,922.25
2019-02-16T02:41:54.928Z,922.26
2019-02-16T02:42:07.960Z,922.25
2019-02-16T02:42:20.961Z,922.22
2019-02-16T02:42:34.002Z,922.23
2019-02-16T02:42:47.089Z,922.21
2019-02-16T02:43:00.185Z,922.25
2019-02-16T02:43:13.180Z,922.26
2019-02-16T02:43:26.252Z,922.21
2019-02-16T02:43:39.234Z,922.23
2019-02-16T02:43:52.411Z,922.2